Time;durP1;ratioP1;P1;durP2;ratioP2;P2;SDS_P1;SDS_P2;PMS_P1;PMS_P2;Temp;Humidity;BMP_temperature;BMP_pressure;BME280_temperature;BME280_humidity;BME280_pressure;Samples;Min_cycle;Max_cycle;Signal;HPM_P1;HPM_P2
2022/04/11 05:17:03;;;;;;;2.10;2.00;;;-1.60;99.90;;;;;;5266976;23;20691;-67
2022/04/11 05:19:30;;;;;;;2.00;1.90;;;-1.40;99.90;;;;;;4958732;29;20275;-67
2022/04/11 05:21:57;;;;;;;2.42;2.40;;;-1.30;99.90;;;;;;4958543;29;20583;-65
2022/04/11 05:24:24;;;;;;;2.35;2.35;;;-1.10;99.90;;;;;;4958541;29;20236;-65
2022/04/11 05:26:51;;;;;;;2.75;2.65;;;-0.80;99.90;;;;;;4958516;29;20316;-65
2022/04/11 05:29:17;;;;;;;3.42;3.22;;;-0.30;99.90;;;;;;4980562;23;20655;-64
2022/04/11 05:31:44;;;;;;;3.55;3.25;;;0.20;99.90;;;;;;4958444;29;20281;-64
2022/04/11 05:34:12;;;;;;;3.88;3.58;;;0.70;99.90;;;;;;4958553;29;20240;-65
2022/04/11 05:36:39;;;;;;;4.25;3.90;;;1.20;99.90;;;;;;4958481;29;20247;-64
2022/04/11 05:39:06;;;;;;;6.38;3.88;;;1.70;99.90;;;;;;4958644;29;20307;-64
2022/04/11 05:41:33;;;;;;;4.45;4.05;;;2.30;99.90;;;;;;4958272;29;20227;-64
2022/04/11 05:44:00;;;;;;;4.65;4.22;;;2.90;99.90;;;;;;4958575;29;20290;-66
2022/04/11 05:46:27;;;;;;;5.40;4.07;;;3.40;99.90;;;;;;4958628;28;20613;-66
2022/04/11 05:48:53;;;;;;;4.70;4.18;;;3.80;99.90;;;;;;4958246;29;20343;-65
2022/04/11 05:51:22;;;;;;;3.47;3.28;;;4.40;99.90;;;;;;4958678;29;20235;-66
2022/04/11 05:53:48;;;;;;;5.35;3.55;;;5.00;99.90;;;;;;4958198;29;20204;-66
2022/04/11 05:56:15;;;;;;;3.00;2.90;;;5.40;99.90;;;;;;4958191;28;20235;-66
2022/04/11 05:58:42;;;;;;;5.43;4.53;;;5.80;99.90;;;;;;4957790;29;20311;-66
2022/04/11 06:01:09;;;;;;;8.57;6.68;;;6.30;99.90;;;;;;4958122;29;20252;-67
2022/04/11 06:03:38;;;;;;;4.35;3.97;;;7.00;99.90;;;;;;4957966;29;20241;-66
2022/04/11 06:06:05;;;;;;;3.78;3.58;;;8.60;99.90;;;;;;4957952;29;20200;-66
2022/04/11 06:08:33;;;;;;;3.53;3.33;;;10.50;96.20;;;;;;4957532;29;20235;-66
2022/04/11 06:11:00;;;;;;;4.03;3.72;;;12.00;57.80;;;;;;4960562;29;20223;-67
2022/04/11 06:13:27;;;;;;;3.08;2.88;;;13.50;48.60;;;;;;4972073;29;20219;-67
2022/04/11 06:15:55;;;;;;;3.25;2.63;;;14.50;41.90;;;;;;4960723;29;20246;-67
2022/04/11 06:18:22;;;;;;;2.70;2.60;;;15.30;39.50;;;;;;4957872;29;20266;-67
2022/04/11 06:20:49;;;;;;;2.35;2.25;;;16.10;36.90;;;;;;4957769;29;20310;-67
2022/04/11 06:23:16;;;;;;;2.70;2.17;;;16.90;34.70;;;;;;4957775;29;20215;-67
2022/04/11 06:25:45;;;;;;;2.00;1.90;;;17.50;32.80;;;;;;4957298;29;20694;-67
2022/04/11 06:28:11;;;;;;;1.80;1.70;;;17.80;31.50;;;;;;4957097;29;20242;-67
2022/04/11 06:30:38;;;;;;;1.65;1.65;;;18.40;31.40;;;;;;4957286;29;20271;-67
2022/04/11 06:33:05;;;;;;;1.70;1.48;;;19.20;29.40;;;;;;4957406;28;20207;-64
2022/04/11 06:35:32;;;;;;;1.10;1.10;;;19.80;28.40;;;;;;4957146;29;20202;-66
2022/04/11 06:37:59;;;;;;;1.00;1.00;;;20.80;27.40;;;;;;4956925;29;20203;-65
2022/04/11 06:40:26;;;;;;;1.50;1.50;;;21.80;27.10;;;;;;4957272;29;20235;-65
2022/04/11 06:42:54;;;;;;;1.63;1.52;;;22.70;25.40;;;;;;4957263;29;20235;-66
2022/04/11 06:45:21;;;;;;;1.80;1.70;;;23.00;24.60;;;;;;4957122;29;20294;-66
2022/04/11 06:47:48;;;;;;;1.67;1.58;;;22.70;24.10;;;;;;4957088;29;20290;-66
2022/04/11 06:50:15;;;;;;;1.58;1.48;;;22.60;23.90;;;;;;4956996;29;20707;-66
2022/04/11 06:52:41;;;;;;;2.28;2.08;;;22.50;23.90;;;;;;4957024;28;20226;-66
2022/04/11 06:55:09;;;;;;;1.80;1.70;;;22.70;23.60;;;;;;4957020;28;20574;-66
2022/04/11 06:57:36;;;;;;;2.05;1.95;;;22.70;23.70;;;;;;4956919;28;20203;-66
2022/04/11 07:00:06;;;;;;;2.08;1.83;;;22.80;23.20;;;;;;4956853;29;20224;-66
2022/04/11 07:02:33;;;;;;;4.75;2.13;;;23.10;23.20;;;;;;4956764;28;20239;-66
2022/04/11 07:04:59;;;;;;;2.00;1.90;;;23.50;22.90;;;;;;4956527;29;20701;-66
2022/04/11 07:07:26;;;;;;;2.22;1.50;;;23.80;23.40;;;;;;4956444;28;20199;-67
2022/04/11 07:09:53;;;;;;;1.92;1.83;;;24.40;23.50;;;;;;4956503;29;20291;-67
2022/04/11 07:12:20;;;;;;;2.17;1.85;;;25.40;23.60;;;;;;4956386;29;20624;-67
2022/04/11 07:14:47;;;;;;;2.35;1.60;;;25.90;23.40;;;;;;4956554;29;20734;-67
2022/04/11 07:17:15;;;;;;;1.60;1.50;;;25.90;23.60;;;;;;4956222;29;20246;-66
2022/04/11 07:19:42;;;;;;;1.52;1.42;;;26.20;23.90;;;;;;4956673;29;20227;-66
2022/04/11 07:22:08;;;;;;;1.50;1.50;;;26.50;24.10;;;;;;4957039;29;20294;-67
2022/04/11 07:24:38;;;;;;;1.30;1.30;;;27.10;23.90;;;;;;4956165;29;20294;-67
2022/04/11 07:27:06;;;;;;;2.60;1.65;;;27.40;22.40;;;;;;4956611;29;20288;-67
2022/04/11 07:29:33;;;;;;;2.47;2.00;;;27.50;23.40;;;;;;4956125;29;20274;-67
2022/04/11 07:32:00;;;;;;;2.20;2.00;;;27.70;22.70;;;;;;4956056;29;20667;-67
2022/04/11 07:34:28;;;;;;;3.95;2.10;;;27.70;22.90;;;;;;4956305;29;20210;-68
2022/04/11 07:36:55;;;;;;;2.38;2.17;;;27.60;22.80;;;;;;4956301;29;20203;-67
2022/04/11 07:39:23;;;;;;;6.00;1.90;;;27.90;22.40;;;;;;4956197;29;20227;-67
2022/04/11 07:41:50;;;;;;;1.80;1.63;;;28.20;22.40;;;;;;4956154;29;20255;-67
2022/04/11 07:44:17;;;;;;;1.40;1.40;;;28.30;22.80;;;;;;4956248;28;20203;-67
2022/04/11 07:46:44;;;;;;;1.40;1.20;;;28.30;22.50;;;;;;4955893;28;20643;-67
2022/04/11 07:49:11;;;;;;;1.13;1.13;;;28.30;21.80;;;;;;4956064;29;20262;-67
2022/04/11 07:51:39;;;;;;;0.88;0.88;;;28.10;21.40;;;;;;4956158;29;20206;-67
2022/04/11 07:54:06;;;;;;;1.00;1.00;;;27.80;20.80;;;;;;4956093;29;20200;-67
2022/04/11 07:56:32;;;;;;;0.85;0.85;;;27.70;21.30;;;;;;4956078;29;20207;-67
2022/04/11 07:58:59;;;;;;;1.00;1.00;;;27.50;21.60;;;;;;4955824;29;20234;-67
2022/04/11 08:01:28;;;;;;;0.70;0.70;;;27.50;21.40;;;;;;4955755;29;20310;-67
2022/04/11 08:03:55;;;;;;;1.20;1.05;;;27.50;21.50;;;;;;4955851;29;20215;-67
2022/04/11 08:06:21;;;;;;;1.20;0.93;;;27.10;20.70;;;;;;4955786;29;20208;-67
2022/04/11 08:08:50;;;;;;;1.10;0.60;;;26.90;21.20;;;;;;4955693;29;20245;-66
2022/04/11 08:11:18;;;;;;;1.15;0.80;;;26.50;20.70;;;;;;4955855;29;20562;-66
2022/04/11 08:13:46;;;;;;;0.60;0.60;;;26.50;21.90;;;;;;4955663;28;20204;-66
2022/04/11 08:16:13;;;;;;;3.03;0.60;;;26.50;20.50;;;;;;4956053;29;20299;-66
2022/04/11 08:18:39;;;;;;;0.65;0.60;;;25.90;20.70;;;;;;4955635;29;20223;-66
2022/04/11 08:21:07;;;;;;;0.52;0.52;;;25.20;21.10;;;;;;4954867;28;20203;-66
2022/04/11 08:23:34;;;;;;;0.80;0.80;;;24.50;20.80;;;;;;4956400;29;20551;-66
2022/04/11 08:26:02;;;;;;;0.80;0.80;;;23.20;21.50;;;;;;4955335;29;20637;-66
2022/04/11 08:28:29;;;;;;;1.10;0.70;;;21.80;21.50;;;;;;4955438;28;20235;-66
2022/04/11 08:30:56;;;;;;;0.70;0.70;;;20.50;19.50;;;;;;4955673;29;20203;-66
2022/04/11 08:33:23;;;;;;;0.60;0.60;;;19.20;20.50;;;;;;4955668;29;20229;-66
2022/04/11 08:35:49;;;;;;;1.10;0.70;;;17.90;23.30;;;;;;4955468;29;20286;-66
2022/04/11 08:38:16;;;;;;;0.80;0.80;;;16.70;25.20;;;;;;4955496;29;20233;-66
2022/04/11 08:40:43;;;;;;;1.00;0.90;;;15.60;24.60;;;;;;4955386;29;20226;-66
2022/04/11 08:43:14;;;;;;;1.00;1.00;;;14.50;25.90;;;;;;4955276;29;20610;-66
2022/04/11 08:45:40;;;;;;;1.30;1.20;;;13.60;26.40;;;;;;4955421;29;20278;-66
2022/04/11 08:48:08;;;;;;;1.00;1.00;;;13.10;27.60;;;;;;4955184;29;20287;-67
2022/04/11 08:50:35;;;;;;;1.50;1.10;;;12.70;29.00;;;;;;4955154;29;20624;-66
2022/04/11 08:53:02;;;;;;;1.05;0.82;;;12.20;27.60;;;;;;4954675;29;20755;-66
2022/04/11 08:55:29;;;;;;;0.90;0.90;;;11.90;29.20;;;;;;4955144;29;20206;-66
2022/04/11 08:57:58;;;;;;;0.90;0.90;;;11.60;28.50;;;;;;4955183;29;20555;-66
2022/04/11 09:00:27;;;;;;;0.90;0.90;;;11.30;29.30;;;;;;4955510;29;20204;-66
2022/04/11 09:02:54;;;;;;;0.80;0.80;;;11.00;30.00;;;;;;4955109;28;20646;-66
2022/04/11 09:05:22;;;;;;;0.90;0.80;;;10.80;31.40;;;;;;4959880;29;20210;-66
2022/04/11 09:07:51;;;;;;;0.90;0.82;;;10.90;31.60;;;;;;4965982;29;20267;-66
2022/04/11 09:10:22;;;;;;;0.88;0.88;;;10.90;31.00;;;;;;4955153;29;20314;-66
2022/04/11 09:12:50;;;;;;;0.80;0.80;;;10.80;31.30;;;;;;4955167;29;20220;-66
2022/04/11 09:15:18;;;;;;;1.17;1.10;;;10.90;30.70;;;;;;4955185;29;20189;-67
2022/04/11 09:17:47;;;;;;;0.98;0.98;;;10.90;30.60;;;;;;4955101;29;20224;-67
2022/04/11 09:20:17;;;;;;;0.80;0.80;;;10.80;31.10;;;;;;4955006;29;20227;-66
2022/04/11 09:22:44;;;;;;;0.70;0.70;;;10.80;31.30;;;;;;4954918;29;20224;-66
2022/04/11 09:25:12;;;;;;;0.90;0.90;;;10.70;31.60;;;;;;4954971;29;20316;-66
2022/04/11 09:27:39;;;;;;;1.55;1.08;;;10.80;31.70;;;;;;4955087;29;20224;-65
2022/04/11 09:30:21;;;;;;;0.95;0.95;;;10.80;31.80;;;;;;4955017;29;20231;-65
2022/04/11 09:33:03;;;;;;;1.80;0.68;;;10.80;32.00;;;;;;4957960;29;20550;-66
2022/04/11 09:35:32;;;;;;;0.65;0.65;;;10.90;32.80;;;;;;4958641;29;20184;-66
2022/04/11 09:38:07;;;;;;;0.75;0.75;;;11.00;32.70;;;;;;4958399;28;20211;-66
2022/04/11 09:40:37;;;;;;;1.20;0.82;;;11.10;32.00;;;;;;4958289;29;20203;-66
2022/04/11 09:43:04;;;;;;;1.27;1.17;;;11.10;32.70;;;;;;4958743;29;20251;-66
2022/04/11 09:45:30;;;;;;;1.17;1.17;;;11.10;32.10;;;;;;4958169;29;20195;-66
2022/04/11 09:48:03;;;;;;;0.82;0.82;;;11.10;31.20;;;;;;4958150;28;20636;-66
2022/04/11 09:50:31;;;;;;;1.00;1.00;;;11.10;31.00;;;;;;4958514;29;20208;-67
2022/04/11 09:53:17;;;;;;;0.75;0.75;;;11.10;33.10;;;;;;4958475;29;20239;-67
2022/04/11 09:55:46;;;;;;;0.68;0.68;;;11.10;32.90;;;;;;4958608;28;20196;-67
2022/04/11 09:58:13;;;;;;;1.15;1.15;;;11.10;33.50;;;;;;4958545;29;20279;-67
2022/04/11 10:00:42;;;;;;;0.90;0.90;;;11.20;32.90;;;;;;4958420;29;20204;-66
2022/04/11 10:03:10;;;;;;;0.60;0.60;;;11.20;33.50;;;;;;4958091;29;20232;-67
2022/04/11 10:05:39;;;;;;;1.05;0.85;;;11.20;32.80;;;;;;4957655;29;20204;-67
2022/04/11 10:08:08;;;;;;;0.75;0.73;;;11.10;32.40;;;;;;4957966;29;20188;-67
2022/04/11 10:10:38;;;;;;;1.15;0.70;;;11.00;32.70;;;;;;4957881;29;20255;-67
2022/04/11 10:13:07;;;;;;;1.00;1.00;;;11.10;33.50;;;;;;4958661;29;20188;-67
2022/04/11 10:15:36;;;;;;;0.80;0.80;;;11.10;33.90;;;;;;4957833;29;20286;-66
2022/04/11 10:18:04;;;;;;;0.95;0.95;;;11.10;33.90;;;;;;4957483;29;20570;-66
2022/04/11 10:20:36;;;;;;;1.17;0.75;;;11.20;34.00;;;;;;4957472;28;20212;-66
2022/04/11 10:23:11;;;;;;;1.17;1.08;;;11.20;33.60;;;;;;4956924;29;20214;-66
2022/04/11 10:25:46;;;;;;;1.05;1.00;;;11.30;34.80;;;;;;4957228;28;20275;-66
2022/04/11 10:28:21;;;;;;;1.00;0.80;;;11.40;35.20;;;;;;4957437;29;20219;-66
2022/04/11 10:31:06;;;;;;;0.70;0.70;;;11.40;34.20;;;;;;4957413;28;20196;-65
2022/04/11 10:33:43;;;;;;;1.02;1.02;;;11.30;33.80;;;;;;4957896;28;20236;-65
2022/04/11 10:36:35;;;;;;;1.13;1.13;;;11.20;33.20;;;;;;4957784;29;20618;-65
2022/04/11 10:39:25;;;;;;;0.82;0.80;;;11.10;34.20;;;;;;4957808;28;20228;-65
2022/04/11 10:42:26;;;;;;;0.90;0.90;;;11.20;35.00;;;;;;4957660;29;20214;-65
2022/04/11 10:44:56;;;;;;;1.13;1.00;;;11.10;35.00;;;;;;4957390;29;20275;-65
2022/04/11 10:47:31;;;;;;;0.95;0.75;;;11.30;35.20;;;;;;4957635;29;20191;-66
2022/04/11 10:50:34;;;;;;;0.88;0.88;;;11.30;35.80;;;;;;4957981;29;20318;-65
2022/04/11 10:53:13;;;;;;;1.13;0.70;;;11.40;35.10;;;;;;4957400;29;20188;-65
2022/04/11 10:56:02;;;;;;;1.08;0.98;;;11.50;35.10;;;;;;4957043;29;20200;-65
2022/04/11 10:58:56;;;;;;;0.70;0.70;;;11.60;34.80;;;;;;4956708;29;20266;-65
2022/04/11 11:01:58;;;;;;;0.80;0.80;;;11.50;34.60;;;;;;4922556;28;20204;-65
2022/04/11 11:04:30;;;;;;;1.15;1.15;;;11.50;35.40;;;;;;4957030;28;20211;-65
2022/04/11 11:07:26;;;;;;;1.88;1.00;;;11.50;35.30;;;;;;4956660;28;20548;-66
2022/04/11 11:10:00;;;;;;;0.80;0.80;;;11.50;36.70;;;;;;4956942;29;20255;-65
2022/04/11 11:12:29;;;;;;;0.80;0.80;;;11.60;37.30;;;;;;4957464;29;20195;-65
2022/04/11 11:14:56;;;;;;;1.00;0.98;;;11.70;36.70;;;;;;4956444;29;20204;-65
2022/04/11 11:17:55;;;;;;;0.85;0.85;;;11.70;36.60;;;;;;4956661;29;20208;-66
2022/04/11 11:20:23;;;;;;;0.90;0.90;;;11.90;36.40;;;;;;4956393;28;20318;-65
2022/04/11 11:23:14;;;;;;;1.20;1.20;;;11.90;35.60;;;;;;4956512;29;20255;-65
2022/04/11 11:25:42;;;;;;;1.02;1.02;;;12.00;35.50;;;;;;4949465;28;20291;-65
2022/04/11 11:28:13;;;;;;;0.88;0.88;;;12.00;35.50;;;;;;4956272;29;20214;-65
2022/04/11 11:30:40;;;;;;;0.88;0.88;;;12.10;36.60;;;;;;4956501;28;20188;-65
2022/04/11 11:33:09;;;;;;;0.90;0.90;;;12.30;36.40;;;;;;4956241;29;20204;-65
2022/04/11 11:35:45;;;;;;;1.30;1.05;;;12.40;36.10;;;;;;4956168;29;20210;-65
2022/04/11 11:38:13;;;;;;;0.93;0.93;;;12.30;35.10;;;;;;4956198;29;20191;-65
2022/04/11 11:40:52;;;;;;;0.77;0.77;;;12.30;35.10;;;;;;4960073;29;20204;-65
2022/04/11 11:43:20;;;;;;;0.93;0.90;;;12.30;35.30;;;;;;4959567;29;20220;-64
2022/04/11 11:45:50;;;;;;;0.98;0.98;;;12.40;34.10;;;;;;4959280;28;20200;-64
2022/04/11 11:48:24;;;;;;;0.70;0.70;;;12.40;33.70;;;;;;4962148;28;20204;-64
2022/04/11 11:50:55;;;;;;;0.80;0.80;;;12.40;35.00;;;;;;4959705;29;20188;-64
2022/04/11 11:53:22;;;;;;;3.30;0.80;;;12.40;36.40;;;;;;4959790;29;20216;-65
2022/04/11 11:55:59;;;;;;;1.48;0.98;;;12.40;36.10;;;;;;4960245;28;20679;-65
2022/04/11 11:58:36;;;;;;;1.33;1.33;;;12.40;36.10;;;;;;4960277;28;20224;-64
2022/04/11 12:01:04;;;;;;;1.23;1.23;;;12.40;36.30;;;;;;4959376;29;20208;-65
2022/04/11 12:06:24;;;;;;;1.20;1.20;;;12.30;36.20;;;;;;4963504;29;20183;-65
2022/04/11 12:08:55;;;;;;;1.15;1.15;;;12.40;36.60;;;;;;4957472;28;20229;-65
2022/04/11 12:11:25;;;;;;;1.00;1.00;;;12.40;36.70;;;;;;4955521;29;20214;-65
2022/04/11 12:13:59;;;;;;;0.70;0.70;;;12.40;36.30;;;;;;4955399;29;20612;-65
2022/04/11 12:16:29;;;;;;;0.80;0.80;;;12.40;36.80;;;;;;4977546;23;20238;-68
2022/04/11 15:21:56;;;;;;;0.85;0.60;;;14.90;31.20;;;;;;5254470;23;20239;-73
2022/04/11 15:24:23;;;;;;;0.50;0.50;;;14.90;31.30;;;;;;4956642;29;20750;-69
2022/04/11 15:26:50;;;;;;;0.70;0.70;;;15.00;31.00;;;;;;4956370;28;20294;-68
2022/04/11 15:29:17;;;;;;;0.60;0.60;;;15.00;31.00;;;;;;4956065;28;20296;-70
2022/04/11 15:31:44;;;;;;;0.70;0.70;;;15.10;31.10;;;;;;4956438;29;20224;-64
2022/04/11 15:34:11;;;;;;;0.50;0.50;;;15.00;31.50;;;;;;4956421;28;20295;-64
2022/04/11 15:36:38;;;;;;;2.03;0.80;;;15.10;32.30;;;;;;4956441;29;20215;-65
2022/04/11 15:39:07;;;;;;;0.98;0.88;;;15.10;31.80;;;;;;4957150;29;20231;-66
2022/04/11 15:41:34;;;;;;;0.88;0.88;;;15.10;31.90;;;;;;4957718;29;20231;-64
2022/04/11 15:44:02;;;;;;;0.60;0.60;;;15.10;31.70;;;;;;4959000;28;20228;-64
2022/04/11 15:46:29;;;;;;;1.38;0.85;;;15.00;32.10;;;;;;4965465;29;20204;-67
2022/04/11 15:48:57;;;;;;;0.70;0.70;;;15.00;31.80;;;;;;4958351;29;20632;-69
2022/04/11 15:51:24;;;;;;;0.80;0.80;;;14.90;32.40;;;;;;4956244;29;20223;-68
2022/04/11 15:53:51;;;;;;;0.60;0.60;;;14.80;32.00;;;;;;4956187;28;20200;-68
2022/04/11 15:56:19;;;;;;;0.60;0.60;;;14.80;32.10;;;;;;4958944;29;20295;-69
2022/04/11 15:58:46;;;;;;;0.60;0.60;;;14.70;32.90;;;;;;4956911;29;20299;-68
2022/04/11 16:01:14;;;;;;;0.60;0.60;;;14.60;32.80;;;;;;4955563;29;20595;-67
2022/04/11 16:03:42;;;;;;;0.70;0.70;;;14.60;32.80;;;;;;4956201;29;20245;-68
2022/04/11 16:06:09;;;;;;;0.77;0.63;;;14.50;32.80;;;;;;4955921;29;20698;-68
2022/04/11 16:08:36;;;;;;;0.63;0.63;;;14.50;32.80;;;;;;4955949;29;20290;-69
2022/04/11 16:11:05;;;;;;;0.65;0.65;;;14.40;32.70;;;;;;4955434;29;20247;-68
2022/04/11 16:13:35;;;;;;;0.60;0.60;;;14.30;32.80;;;;;;4955779;28;20276;-69
2022/04/11 16:16:02;;;;;;;0.50;0.50;;;14.30;33.80;;;;;;4956231;28;20684;-71
2022/04/11 16:18:28;;;;;;;0.82;0.82;;;14.20;34.90;;;;;;4955678;29;20210;-71
2022/04/11 16:20:55;;;;;;;0.80;0.80;;;14.10;34.30;;;;;;4955509;29;20218;-71
2022/04/11 16:23:22;;;;;;;0.90;0.90;;;14.00;34.70;;;;;;4955217;29;20234;-70
2022/04/11 16:25:49;;;;;;;1.33;1.02;;;14.00;34.60;;;;;;4955505;29;20204;-70
2022/04/11 16:28:16;;;;;;;0.90;0.90;;;13.90;34.60;;;;;;4955728;29;20215;-70
2022/04/11 16:30:46;;;;;;;0.63;0.63;;;13.90;35.00;;;;;;4955270;29;20219;-70
2022/04/11 16:33:13;;;;;;;0.70;0.70;;;13.90;36.10;;;;;;4955795;28;20196;-69
2022/04/11 16:35:40;;;;;;;0.60;0.60;;;13.90;37.50;;;;;;4955409;29;20211;-69
2022/04/11 16:38:07;;;;;;;0.60;0.60;;;13.80;37.70;;;;;;4955215;29;20203;-69
2022/04/11 16:40:34;;;;;;;0.60;0.60;;;13.70;38.60;;;;;;4954494;29;20224;-69
2022/04/11 16:43:01;;;;;;;0.80;0.80;;;13.70;39.20;;;;;;4955104;29;20220;-69
2022/04/11 16:45:28;;;;;;;0.50;0.50;;;13.60;40.90;;;;;;4955096;29;20210;-69
2022/04/11 16:47:56;;;;;;;0.50;0.50;;;13.40;41.50;;;;;;4954941;29;20671;-69
2022/04/11 16:50:23;;;;;;;0.50;0.50;;;13.30;41.40;;;;;;4955373;28;20678;-69
2022/04/11 16:52:50;;;;;;;0.30;0.30;;;13.30;42.20;;;;;;4955252;29;20616;-69
2022/04/11 16:55:17;;;;;;;0.45;0.45;;;13.20;43.60;;;;;;4955039;29;20239;-69
2022/04/11 16:57:44;;;;;;;0.40;0.40;;;13.10;45.00;;;;;;4955253;28;20234;-69
2022/04/11 17:00:12;;;;;;;0.40;0.40;;;13.00;47.80;;;;;;4954768;29;20226;-69
2022/04/11 17:02:39;;;;;;;0.50;0.50;;;12.80;51.50;;;;;;4954964;28;20210;-69
2022/04/11 17:05:08;;;;;;;0.30;0.30;;;12.70;52.90;;;;;;4954695;29;20267;-69
2022/04/11 17:07:35;;;;;;;0.40;0.40;;;12.60;56.20;;;;;;4955238;28;20287;-69
2022/04/11 17:10:02;;;;;;;0.40;0.40;;;12.50;58.90;;;;;;4955234;28;20624;-70
2022/04/11 17:12:29;;;;;;;0.40;0.40;;;12.40;61.30;;;;;;4954800;29;20234;-70
2022/04/11 17:14:56;;;;;;;0.50;0.50;;;12.20;62.10;;;;;;4954836;29;20196;-70
2022/04/11 17:20:10;;;;;;;0.40;0.40;;;12.00;68.20;;;;;;4954715;29;20324;-70
2022/04/11 17:22:37;;;;;;;0.40;0.40;;;11.90;71.90;;;;;;4955034;29;20299;-70
2022/04/11 17:25:05;;;;;;;0.40;0.40;;;11.80;72.80;;;;;;4955126;29;20586;-69
2022/04/11 17:27:32;;;;;;;0.45;0.45;;;11.60;73.40;;;;;;4954951;28;20200;-70
2022/04/11 17:29:59;;;;;;;0.40;0.40;;;11.50;74.00;;;;;;4955057;29;20212;-69
2022/04/11 17:32:26;;;;;;;0.40;0.40;;;11.40;76.80;;;;;;4954505;29;20590;-70
2022/04/11 17:34:53;;;;;;;0.40;0.38;;;11.30;77.60;;;;;;4954676;29;20662;-70
2022/04/11 17:37:21;;;;;;;0.55;0.55;;;11.20;78.70;;;;;;4954953;28;20578;-69
2022/04/11 17:39:48;;;;;;;0.60;0.60;;;11.10;81.40;;;;;;4954960;29;20295;-69
2022/04/11 17:42:15;;;;;;;0.60;0.60;;;11.00;87.70;;;;;;4954588;29;20224;-69
2022/04/11 17:44:42;;;;;;;0.60;0.60;;;10.90;97.20;;;;;;4955348;29;20389;-69
2022/04/11 17:47:09;;;;;;;0.50;0.50;;;10.70;99.90;;;;;;4954818;29;20283;-69
2022/04/11 17:49:35;;;;;;;0.60;0.60;;;10.60;98.70;;;;;;4955823;28;20236;-69
2022/04/11 17:52:02;;;;;;;0.55;0.55;;;10.40;99.90;;;;;;4956380;28;20223;-69
2022/04/11 17:54:31;;;;;;;0.40;0.40;;;10.30;99.90;;;;;;4958412;28;20204;-69
2022/04/11 17:56:58;;;;;;;0.57;0.55;;;10.20;99.90;;;;;;4958619;29;20641;-69
2022/04/11 17:59:28;;;;;;;0.60;0.60;;;10.00;99.90;;;;;;4958149;29;20208;-69
2022/04/11 18:01:55;;;;;;;0.70;0.70;;;9.80;99.90;;;;;;4958354;28;20295;-69
2022/04/11 18:04:22;;;;;;;1.85;0.50;;;9.70;99.90;;;;;;4958015;28;20230;-69
2022/04/11 18:06:49;;;;;;;0.40;0.40;;;9.60;99.90;;;;;;4958123;29;20295;-69
2022/04/11 18:09:16;;;;;;;0.55;0.55;;;9.40;99.90;;;;;;4957682;29;20559;-69
2022/04/11 18:11:44;;;;;;;0.50;0.50;;;9.30;99.90;;;;;;4957534;29;20689;-68
2022/04/11 18:14:11;;;;;;;0.60;0.60;;;9.10;99.90;;;;;;4957840;29;20304;-68
2022/04/11 18:16:38;;;;;;;0.55;0.55;;;9.00;99.90;;;;;;4957689;29;20208;-68
2022/04/11 18:19:05;;;;;;;0.60;0.60;;;8.90;99.90;;;;;;4957407;28;20641;-69
2022/04/11 18:21:32;;;;;;;0.60;0.60;;;8.70;99.90;;;;;;4957594;28;20234;-68
2022/04/11 18:24:01;;;;;;;0.77;0.77;;;8.70;99.90;;;;;;4957335;29;20216;-69
2022/04/11 18:26:28;;;;;;;0.70;0.70;;;8.50;99.90;;;;;;4957661;29;20208;-69
2022/04/11 18:31:41;;;;;;;0.60;0.60;;;8.30;99.90;;;;;;4957425;29;20223;-69
2022/04/11 18:34:08;;;;;;;0.73;0.73;;;8.20;99.90;;;;;;4957555;29;20291;-70
2022/04/11 18:36:36;;;;;;;0.80;0.80;;;8.10;99.90;;;;;;4957373;29;20243;-70
2022/04/11 18:39:04;;;;;;;0.82;0.82;;;8.00;99.90;;;;;;4957686;28;20208;-72
2022/04/11 18:41:31;;;;;;;0.80;0.80;;;7.90;99.90;;;;;;4957611;29;20781;-71
2022/04/11 18:44:00;;;;;;;0.70;0.70;;;7.80;99.90;;;;;;4957032;29;20216;-69
2022/04/11 18:46:27;;;;;;;0.70;0.70;;;7.70;99.90;;;;;;4959073;29;20206;-69
2022/04/11 18:48:54;;;;;;;0.80;0.80;;;7.60;99.90;;;;;;4958459;29;20218;-70
2022/04/11 18:51:22;;;;;;;0.85;0.85;;;7.60;99.90;;;;;;4957471;29;20584;-69
2022/04/11 18:53:49;;;;;;;0.77;0.77;;;7.50;99.90;;;;;;4958035;28;20255;-70
2022/04/11 18:56:18;;;;;;;0.70;0.70;;;7.40;99.90;;;;;;4957517;29;20254;-71
2022/04/11 18:58:45;;;;;;;0.60;0.60;;;7.40;99.90;;;;;;4957056;28;20664;-71
2022/04/11 19:01:16;;;;;;;0.90;0.60;;;7.30;99.90;;;;;;4956836;28;20223;-71
2022/04/11 19:03:44;;;;;;;0.50;0.50;;;7.30;99.90;;;;;;4956208;28;20243;-71
2022/04/11 19:06:11;;;;;;;0.77;0.77;;;7.20;99.90;;;;;;4956627;29;20200;-70
2022/04/11 19:08:38;;;;;;;0.40;0.40;;;7.10;99.90;;;;;;4956957;29;20291;-70
2022/04/11 19:11:05;;;;;;;0.60;0.60;;;7.00;99.90;;;;;;4956657;28;20319;-70
2022/04/11 19:13:32;;;;;;;0.80;0.80;;;6.90;99.90;;;;;;4956862;29;20231;-71
2022/04/11 19:16:00;;;;;;;0.85;0.85;;;6.90;99.90;;;;;;4956951;29;20214;-71
2022/04/11 19:18:29;;;;;;;0.88;0.88;;;6.90;99.90;;;;;;4957228;29;20247;-70
2022/04/11 19:20:56;;;;;;;1.08;1.08;;;6.80;99.90;;;;;;4957355;28;20278;-70
2022/04/11 19:23:23;;;;;;;1.00;1.00;;;6.70;99.90;;;;;;4956563;28;20219;-71
2022/04/11 19:25:50;;;;;;;0.57;0.57;;;6.70;99.90;;;;;;4956814;29;20230;-70
2022/04/11 19:28:18;;;;;;;0.52;0.52;;;6.70;99.90;;;;;;4956549;29;20203;-71
2022/04/11 19:30:46;;;;;;;0.63;0.63;;;6.60;99.90;;;;;;4956734;29;20315;-70
2022/04/11 19:33:12;;;;;;;0.70;0.70;;;6.60;99.90;;;;;;4956444;29;20611;-70
2022/04/11 19:35:42;;;;;;;0.60;0.60;;;6.50;99.90;;;;;;4956265;29;20242;-70
2022/04/11 19:38:09;;;;;;;0.60;0.60;;;6.50;99.90;;;;;;4956462;29;20291;-70
2022/04/11 19:40:37;;;;;;;0.57;0.57;;;6.40;99.90;;;;;;4956318;29;20220;-70
2022/04/11 19:43:05;;;;;;;1.13;0.50;;;6.40;99.90;;;;;;4956198;29;20204;-70
2022/04/11 19:45:32;;;;;;;0.60;0.60;;;6.30;99.90;;;;;;4956060;29;20226;-70
2022/04/11 19:50:45;;;;;;;0.60;0.60;;;6.20;99.90;;;;;;4956480;29;20222;-70
2022/04/11 19:53:13;;;;;;;0.95;0.95;;;6.20;99.90;;;;;;4956117;28;20207;-70
2022/04/11 19:55:41;;;;;;;0.70;0.70;;;6.10;99.90;;;;;;4956483;29;20200;-70
2022/04/11 19:58:08;;;;;;;0.68;0.68;;;6.00;99.90;;;;;;4956343;29;20204;-70
2022/04/11 20:00:35;;;;;;;0.60;0.60;;;6.00;99.90;;;;;;4956334;29;20258;-71
2022/04/11 20:03:02;;;;;;;0.75;0.75;;;5.90;99.90;;;;;;4956294;29;20203;-70
2022/04/11 20:05:29;;;;;;;0.80;0.80;;;5.90;99.90;;;;;;4956175;28;20234;-71
2022/04/11 20:07:57;;;;;;;0.70;0.70;;;5.80;99.90;;;;;;4956287;29;20295;-69
2022/04/11 20:10:25;;;;;;;0.70;0.70;;;5.70;99.90;;;;;;4955983;29;20239;-69
2022/04/11 20:12:53;;;;;;;0.57;0.57;;;5.70;99.90;;;;;;4955912;29;20206;-70
2022/04/11 20:15:20;;;;;;;0.68;0.68;;;5.70;99.90;;;;;;4956255;28;20287;-69
2022/04/11 20:17:48;;;;;;;0.55;0.55;;;5.70;99.90;;;;;;4956150;28;20208;-69
2022/04/11 20:20:15;;;;;;;0.60;0.60;;;5.60;99.90;;;;;;4955812;29;20212;-69
2022/04/11 20:22:42;;;;;;;0.70;0.70;;;5.60;99.90;;;;;;4955705;29;20212;-69
2022/04/11 20:25:12;;;;;;;0.63;0.63;;;5.50;99.90;;;;;;4955692;28;20228;-70
2022/04/11 20:27:39;;;;;;;0.60;0.60;;;5.50;99.90;;;;;;4955720;29;20206;-69
2022/04/11 20:30:07;;;;;;;0.80;0.80;;;5.40;99.90;;;;;;4955727;29;20295;-69
2022/04/11 20:32:34;;;;;;;0.70;0.70;;;5.40;99.90;;;;;;4955451;28;20242;-69
2022/04/11 20:35:01;;;;;;;1.42;1.27;;;5.40;99.90;;;;;;4955473;29;20223;-69
2022/04/11 20:37:29;;;;;;;1.50;1.50;;;5.40;99.90;;;;;;4955541;29;20208;-68
2022/04/11 20:39:56;;;;;;;1.35;1.25;;;5.40;99.90;;;;;;4955608;29;20208;-68
2022/04/11 20:42:24;;;;;;;0.93;0.93;;;5.30;99.90;;;;;;4955596;29;20220;-69
2022/04/11 20:44:51;;;;;;;1.00;1.00;;;5.30;99.90;;;;;;4955620;29;20311;-69
2022/04/11 20:47:18;;;;;;;0.90;0.90;;;5.30;99.90;;;;;;4955134;29;20295;-69
2022/04/11 20:49:45;;;;;;;0.98;0.98;;;5.20;99.90;;;;;;4955192;29;20688;-68
2022/04/11 20:52:12;;;;;;;0.80;0.80;;;5.20;99.90;;;;;;4955354;29;20224;-69
2022/04/11 20:57:24;;;;;;;0.85;0.85;;;5.00;99.90;;;;;;4955371;29;20232;-68
2022/04/11 20:59:51;;;;;;;0.80;0.80;;;5.00;99.90;;;;;;4955094;29;20210;-66
2022/04/11 21:02:18;;;;;;;1.00;1.00;;;4.90;99.90;;;;;;4955473;29;20311;-71
2022/04/11 21:04:45;;;;;;;0.95;0.95;;;4.90;99.90;;;;;;4955708;29;20232;-72
2022/04/11 21:07:12;;;;;;;0.80;0.80;;;4.90;99.90;;;;;;4955766;29;20646;-72
2022/04/11 21:09:38;;;;;;;0.80;0.80;;;4.80;99.90;;;;;;4955670;29;20210;-71
2022/04/11 21:12:06;;;;;;;0.80;0.80;;;4.80;99.90;;;;;;4955121;29;20718;-71
2022/04/11 21:14:34;;;;;;;0.82;0.82;;;4.70;99.90;;;;;;4955275;29;20282;-71
2022/04/11 21:17:01;;;;;;;1.20;1.00;;;4.70;99.90;;;;;;4955546;28;20295;-70
2022/04/11 21:19:28;;;;;;;0.77;0.77;;;4.70;99.90;;;;;;4955275;29;20212;-72
2022/04/11 21:21:55;;;;;;;0.85;0.85;;;4.60;99.90;;;;;;4955233;29;20270;-71
2022/04/11 21:24:21;;;;;;;0.75;0.75;;;4.60;99.90;;;;;;4954956;28;20709;-71
2022/04/11 21:26:48;;;;;;;1.00;1.00;;;4.60;99.90;;;;;;4955271;28;20200;-71
2022/04/11 21:29:15;;;;;;;0.73;0.73;;;4.60;99.90;;;;;;4958665;28;20211;-70
2022/04/11 21:31:43;;;;;;;0.57;0.57;;;4.60;99.90;;;;;;4958420;29;20230;-71